Time;durP1;ratioP1;P1;durP2;ratioP2;P2;SDS_P1;SDS_P2;PMS_P1;PMS_P2;Temp;Humidity;BMP_temperature;BMP_pressure;BME280_temperature;BME280_humidity;BME280_pressure;Samples;Min_cycle;Max_cycle;Signal;HPM_P1;HPM_P2
2022/06/04 00:00:15;;;;;;;6.07;2.25;;;16.40;99.90;;;;;;7322191;32;20126;-62
2022/06/04 00:04:17;;;;;;;4.43;2.20;;;16.40;99.90;;;;;;7322940;32;20631;-63
2022/06/04 00:08:19;;;;;;;4.35;2.20;;;16.30;99.90;;;;;;7323719;32;20223;-63
2022/06/04 00:16:41;;;;;;;4.75;2.00;;;16.20;99.90;;;;;;7321696;32;20198;-62
2022/06/04 00:20:44;;;;;;;6.00;2.10;;;16.20;99.90;;;;;;7327652;32;20178;-62
2022/06/04 00:24:45;;;;;;;5.40;2.30;;;16.00;99.90;;;;;;7322832;32;20562;-62
2022/06/04 00:28:48;;;;;;;3.62;2.15;;;16.00;99.90;;;;;;7322094;32;20104;-62
2022/06/04 00:32:50;;;;;;;3.55;2.05;;;16.00;99.90;;;;;;7319880;32;20134;-61
2022/06/04 00:36:52;;;;;;;4.18;2.05;;;15.90;99.90;;;;;;7324322;32;20193;-62
2022/06/04 00:41:28;;;;;;;4.30;2.05;;;15.90;99.90;;;;;;7326513;32;20766;-62
2022/06/04 00:45:35;;;;;;;2.92;2.12;;;15.70;99.90;;;;;;7321284;32;20112;-61
2022/06/04 00:49:38;;;;;;;4.78;2.30;;;15.80;99.90;;;;;;7321940;32;20267;-63
2022/06/04 00:53:41;;;;;;;3.50;2.08;;;15.70;99.90;;;;;;7320009;32;20107;-62
2022/06/04 00:58:15;;;;;;;4.15;2.30;;;15.60;99.90;;;;;;7333023;32;20143;-61
2022/06/04 01:02:53;;;;;;;6.40;2.40;;;15.60;99.90;;;;;;7300427;32;20108;-64
2022/06/04 01:07:00;;;;;;;7.32;2.60;;;15.50;99.90;;;;;;7329786;32;20135;-62
2022/06/04 01:11:32;;;;;;;3.67;2.12;;;15.40;99.90;;;;;;7318582;32;20116;-62
2022/06/04 01:15:37;;;;;;;5.65;2.42;;;15.30;99.90;;;;;;7317512;32;20107;-62
2022/06/04 01:19:54;;;;;;;5.53;2.60;;;15.40;99.90;;;;;;7322090;32;20221;-63
2022/06/04 01:24:22;;;;;;;3.95;2.50;;;15.40;99.90;;;;;;7320668;32;20130;-62
2022/06/04 01:28:27;;;;;;;4.30;2.35;;;15.30;99.90;;;;;;7317298;32;20261;-63
2022/06/04 01:32:40;;;;;;;6.70;2.33;;;15.20;99.90;;;;;;7316850;32;20491;-63
2022/06/04 01:36:53;;;;;;;3.20;2.33;;;15.20;99.90;;;;;;7314754;32;20239;-62
2022/06/04 01:41:07;;;;;;;5.47;2.60;;;15.10;99.90;;;;;;7321191;32;20139;-62
2022/06/04 01:45:12;;;;;;;4.80;2.65;;;15.10;99.90;;;;;;7318848;32;20152;-62
2022/06/04 01:49:22;;;;;;;5.85;3.08;;;15.00;99.90;;;;;;7322107;32;20245;-63
2022/06/04 01:53:30;;;;;;;7.80;2.90;;;14.90;99.90;;;;;;7315526;32;20122;-62
2022/06/04 01:57:56;;;;;;;4.72;2.42;;;14.90;99.90;;;;;;7314845;32;20611;-61
2022/06/04 02:02:01;;;;;;;7.25;3.00;;;14.90;99.90;;;;;;7308915;32;20277;-62
2022/06/04 02:06:18;;;;;;;6.15;2.97;;;14.90;99.90;;;;;;7327879;32;20175;-62
2022/06/04 02:10:35;;;;;;;6.35;2.67;;;14.90;99.90;;;;;;7316584;32;20116;-61
2022/06/04 02:14:44;;;;;;;6.37;2.85;;;14.80;99.90;;;;;;7317866;32;20546;-62
2022/06/04 02:18:45;;;;;;;6.00;2.90;;;14.70;99.90;;;;;;7309657;32;20758;-62
2022/06/04 02:22:49;;;;;;;5.60;2.87;;;14.80;99.90;;;;;;7322218;32;20159;-62
2022/06/04 02:26:51;;;;;;;4.93;2.95;;;14.70;99.90;;;;;;7321032;32;20459;-62
2022/06/04 02:31:01;;;;;;;5.72;3.25;;;14.70;99.90;;;;;;7316246;32;20641;-61
2022/06/04 02:35:08;;;;;;;5.65;3.30;;;14.70;99.90;;;;;;7314334;32;20735;-62
2022/06/04 02:39:09;;;;;;;7.12;3.47;;;14.70;99.90;;;;;;7312958;32;20198;-62
2022/06/04 02:43:16;;;;;;;6.70;3.30;;;14.70;99.90;;;;;;7317595;32;20201;-61
2022/06/04 02:47:23;;;;;;;8.20;3.85;;;14.60;99.90;;;;;;7316878;32;20213;-62
2022/06/04 02:51:35;;;;;;;4.55;3.50;;;14.60;99.90;;;;;;7315568;32;20622;-61
2022/06/04 02:56:13;;;;;;;6.87;3.67;;;14.60;99.90;;;;;;7318584;32;20783;-62
2022/06/04 03:00:18;;;;;;;5.67;3.50;;;14.60;99.90;;;;;;7292569;32;20135;-61
2022/06/04 03:04:20;;;;;;;6.37;4.50;;;14.60;99.90;;;;;;7310556;32;20103;-61
2022/06/04 03:08:23;;;;;;;6.28;3.92;;;14.60;99.90;;;;;;7318487;32;20707;-61
2022/06/04 03:12:25;;;;;;;4.97;3.70;;;14.50;99.90;;;;;;7315414;32;20131;-61
2022/06/04 03:16:38;;;;;;;7.05;4.65;;;14.40;99.90;;;;;;7331116;32;20385;-62
2022/06/04 03:20:40;;;;;;;5.50;3.75;;;14.40;99.90;;;;;;7319600;32;20238;-63
2022/06/04 03:24:48;;;;;;;6.00;4.25;;;14.40;99.90;;;;;;7323886;32;20264;-62
2022/06/04 03:28:50;;;;;;;8.90;4.82;;;14.40;99.90;;;;;;7327567;32;20222;-61
2022/06/04 03:32:52;;;;;;;5.90;3.60;;;14.30;99.90;;;;;;7322578;32;20119;-62
2022/06/04 03:36:54;;;;;;;5.68;4.32;;;14.30;99.90;;;;;;7312034;32;20532;-61
2022/06/04 03:40:56;;;;;;;9.00;4.30;;;14.20;99.90;;;;;;7328715;32;20163;-62
2022/06/04 03:44:58;;;;;;;6.75;4.15;;;14.20;99.90;;;;;;7324609;32;20392;-62
2022/06/04 03:48:59;;;;;;;6.85;4.40;;;14.20;99.90;;;;;;7319095;32;20111;-61
2022/06/04 03:53:01;;;;;;;5.90;3.80;;;14.20;99.90;;;;;;7324998;32;20124;-62
2022/06/04 04:01:27;;;;;;;6.37;4.18;;;14.10;99.90;;;;;;7324483;32;20116;-62
2022/06/04 04:05:32;;;;;;;7.93;4.43;;;14.10;99.90;;;;;;7324047;32;20207;-62
2022/06/04 04:09:34;;;;;;;5.45;4.05;;;14.10;99.90;;;;;;7319693;32;20139;-61
2022/06/04 04:13:35;;;;;;;5.50;4.35;;;14.10;99.90;;;;;;7325193;32;20158;-62
2022/06/04 04:17:39;;;;;;;5.65;4.43;;;14.10;99.90;;;;;;7319806;32;20134;-62
2022/06/04 04:21:41;;;;;;;6.30;4.10;;;14.10;99.90;;;;;;7319952;32;20169;-61
2022/06/04 04:25:42;;;;;;;5.37;3.85;;;14.00;99.90;;;;;;7317796;32;20137;-62
2022/06/04 04:29:44;;;;;;;8.85;4.90;;;14.10;99.90;;;;;;7322664;32;20111;-62
2022/06/04 04:33:46;;;;;;;8.30;4.97;;;14.00;99.90;;;;;;7320944;32;20155;-62
2022/06/04 04:37:48;;;;;;;6.78;4.00;;;14.00;99.90;;;;;;7321222;32;20636;-61
2022/06/04 04:41:50;;;;;;;9.27;4.20;;;14.10;99.90;;;;;;7321124;32;20161;-61
2022/06/04 04:46:04;;;;;;;8.30;4.68;;;14.10;99.90;;;;;;7319130;32;20199;-61
2022/06/04 04:50:10;;;;;;;7.15;4.75;;;14.10;99.90;;;;;;7325295;32;20265;-62
2022/06/04 04:54:12;;;;;;;6.57;4.63;;;14.00;99.90;;;;;;7322159;32;20111;-62
2022/06/04 04:58:14;;;;;;;8.00;5.03;;;14.10;99.90;;;;;;7321194;32;20261;-62
2022/06/04 05:02:16;;;;;;;7.62;4.43;;;14.20;99.90;;;;;;7322266;32;20137;-62
2022/06/04 05:06:19;;;;;;;5.45;4.60;;;14.10;99.90;;;;;;7313258;32;20185;-61
2022/06/04 05:10:21;;;;;;;7.35;4.37;;;14.20;99.90;;;;;;7322548;32;20207;-61
2022/06/04 05:14:23;;;;;;;7.20;4.47;;;14.20;99.90;;;;;;7319077;32;20204;-62
2022/06/04 05:18:24;;;;;;;8.88;4.60;;;14.30;99.90;;;;;;7318078;32;20565;-62
2022/06/04 05:22:26;;;;;;;7.85;4.95;;;14.40;99.90;;;;;;7318430;32;20146;-62
2022/06/04 05:26:28;;;;;;;7.95;4.60;;;14.40;99.90;;;;;;7315069;32;20198;-61
2022/06/04 05:30:30;;;;;;;7.60;4.40;;;14.50;99.90;;;;;;7321450;32;20166;-62
2022/06/04 05:34:32;;;;;;;4.93;4.43;;;14.50;99.90;;;;;;7318069;32;20381;-64
2022/06/04 05:38:34;;;;;;;7.68;4.50;;;14.50;99.90;;;;;;7316911;32;20100;-62
2022/06/04 05:42:36;;;;;;;7.40;4.65;;;14.60;99.90;;;;;;7327785;32;20103;-62
2022/06/04 05:46:42;;;;;;;5.95;4.60;;;14.60;99.90;;;;;;7319264;32;20238;-63
2022/06/04 05:50:52;;;;;;;6.10;4.55;;;14.60;99.90;;;;;;7316073;32;20184;-63
2022/06/04 05:54:53;;;;;;;6.12;4.45;;;14.70;99.90;;;;;;7312730;32;20206;-64
2022/06/04 05:59:00;;;;;;;9.13;4.85;;;14.90;99.90;;;;;;7320933;32;20119;-64
2022/06/04 06:03:02;;;;;;;6.85;4.65;;;15.00;99.90;;;;;;7322817;32;20107;-66
2022/06/04 06:07:04;;;;;;;10.10;4.87;;;15.20;99.90;;;;;;7325423;32;20866;-64
2022/06/04 06:11:08;;;;;;;6.37;4.35;;;15.30;99.90;;;;;;7311027;32;20206;-65
2022/06/04 06:15:10;;;;;;;4.97;4.28;;;15.40;99.90;;;;;;7315816;32;20111;-64
2022/06/04 06:19:14;;;;;;;6.65;4.40;;;15.70;99.90;;;;;;7315214;32;20253;-65
2022/06/04 06:23:15;;;;;;;7.00;4.43;;;16.00;99.90;;;;;;7315952;32;20119;-65
2022/06/04 06:27:17;;;;;;;8.52;4.00;;;16.40;99.90;;;;;;7316399;32;20120;-65
2022/06/04 06:31:22;;;;;;;7.03;4.22;;;16.50;99.90;;;;;;7325870;32;20722;-68
2022/06/04 06:35:24;;;;;;;5.57;3.67;;;16.70;99.90;;;;;;7315485;32;20130;-69
2022/06/04 06:39:26;;;;;;;6.68;4.90;;;17.10;99.90;;;;;;7312357;32;20131;-67
2022/06/04 06:43:36;;;;;;;5.35;4.57;;;17.00;99.90;;;;;;7321532;32;20520;-68
2022/06/04 06:47:39;;;;;;;6.25;5.50;;;17.20;99.90;;;;;;7319127;32;20239;-67
2022/06/04 06:51:49;;;;;;;6.05;4.07;;;17.20;99.90;;;;;;7327506;32;20813;-65
2022/06/04 06:55:51;;;;;;;4.37;3.80;;;17.10;99.90;;;;;;7321623;32;20127;-65
2022/06/04 06:59:54;;;;;;;6.95;4.45;;;16.90;99.90;;;;;;7323038;32;20126;-64
2022/06/04 07:03:56;;;;;;;10.60;4.65;;;17.20;99.90;;;;;;7318826;32;20491;-63
2022/06/04 07:07:57;;;;;;;8.68;4.70;;;16.90;99.90;;;;;;7326885;32;20644;-62
2022/06/04 07:12:00;;;;;;;13.32;10.40;;;16.90;99.90;;;;;;7330311;32;20194;-63
2022/06/04 07:16:02;;;;;;;5.72;4.05;;;17.10;99.90;;;;;;7315443;32;20133;-68
2022/06/04 07:20:05;;;;;;;7.60;4.87;;;16.90;99.90;;;;;;7325249;32;20120;-66
2022/06/04 07:24:07;;;;;;;5.80;4.20;;;16.90;99.90;;;;;;7314336;32;20437;-61
2022/06/04 07:28:09;;;;;;;5.57;4.35;;;16.70;99.90;;;;;;7314717;32;20194;-64
2022/06/04 07:32:11;;;;;;;8.10;4.20;;;16.80;99.90;;;;;;7320982;32;20758;-65
2022/06/04 07:36:18;;;;;;;8.75;4.40;;;17.10;99.90;;;;;;7322618;32;20153;-65
2022/06/04 07:40:20;;;;;;;;;;;17.20;99.90;;;;;;7329350;32;20170;-65
2022/06/04 07:44:24;;;;;;;4.85;3.87;;;17.40;99.90;;;;;;7319794;32;20026;-65
2022/06/04 07:48:26;;;;;;;11.18;7.55;;;17.50;99.90;;;;;;7315197;32;20218;-65
2022/06/04 07:52:29;;;;;;;7.90;4.50;;;17.70;99.90;;;;;;7317423;32;20304;-67
2022/06/04 07:56:31;;;;;;;6.72;4.10;;;17.60;99.90;;;;;;7320877;32;20134;-66
2022/06/04 08:00:37;;;;;;;10.05;4.20;;;17.40;99.90;;;;;;7319878;32;20233;-66
2022/06/04 08:04:39;;;;;;;7.72;4.25;;;17.50;99.90;;;;;;7318881;32;20232;-66
2022/06/04 08:08:41;;;;;;;4.93;3.92;;;17.60;99.90;;;;;;7320802;32;20214;-60
2022/06/04 08:12:47;;;;;;;8.25;5.35;;;17.60;99.90;;;;;;7315139;32;20120;-67
2022/06/04 08:16:53;;;;;;;8.10;4.20;;;17.60;99.90;;;;;;7317500;32;20306;-66
2022/06/04 08:20:55;;;;;;;7.93;4.60;;;17.60;99.90;;;;;;7313373;32;20750;-66
2022/06/04 08:24:57;;;;;;;7.32;3.90;;;17.90;99.90;;;;;;7326395;32;20112;-67
2022/06/04 08:28:58;;;;;;;9.05;4.55;;;17.70;99.90;;;;;;7323074;32;20555;-67
2022/06/04 08:33:00;;;;;;;6.68;3.75;;;17.70;99.90;;;;;;7321517;32;20170;-66
2022/06/04 08:37:02;;;;;;;4.90;4.00;;;17.80;99.90;;;;;;7327145;32;20141;-66
2022/06/04 08:41:07;;;;;;;8.70;4.37;;;17.80;99.90;;;;;;7326282;32;20212;-66
2022/06/04 08:45:11;;;;;;;13.90;9.63;;;17.90;99.90;;;;;;7322307;32;20099;-66
2022/06/04 08:49:24;;;;;;;4.40;3.83;;;18.40;99.90;;;;;;7326603;32;20126;-66
2022/06/04 08:53:29;;;;;;;5.62;4.28;;;18.40;99.90;;;;;;7321421;32;20161;-65
2022/06/04 08:57:46;;;;;;;4.70;4.05;;;18.70;99.90;;;;;;7334529;32;20166;-66
2022/06/04 09:01:53;;;;;;;;;;;19.00;99.90;;;;;;7319601;32;20261;-62
2022/06/04 09:06:00;;;;;;;5.47;4.37;;;19.20;99.90;;;;;;7316078;32;20026;-68
2022/06/04 09:10:13;;;;;;;9.82;5.15;;;18.90;99.90;;;;;;7324762;32;20111;-68
2022/06/04 09:14:37;;;;;;;7.82;3.87;;;18.70;99.90;;;;;;7323960;32;20561;-69
2022/06/04 09:18:39;;;;;;;7.37;4.25;;;18.70;99.90;;;;;;7322109;32;20646;-67
2022/06/04 09:22:43;;;;;;;7.95;5.03;;;18.80;99.90;;;;;;7312488;32;20107;-69
2022/06/04 09:27:26;;;;;;;11.90;4.65;;;18.80;99.90;;;;;;7310607;32;20140;-69
2022/06/04 09:31:49;;;;;;;4.95;4.47;;;18.70;99.90;;;;;;7318071;32;20574;-68
2022/06/04 09:35:56;;;;;;;5.50;4.45;;;18.50;99.90;;;;;;7308615;32;20195;-67
2022/06/04 09:40:06;;;;;;;7.60;4.72;;;18.70;99.90;;;;;;7332003;32;20734;-67
2022/06/04 09:44:15;;;;;;;9.82;5.50;;;18.70;99.90;;;;;;7321302;32;20138;-66
2022/06/04 09:48:28;;;;;;;8.65;6.03;;;18.60;99.90;;;;;;7320781;32;20648;-66
2022/06/04 09:52:36;;;;;;;8.18;5.75;;;18.60;99.90;;;;;;7319069;32;20206;-70
2022/06/04 09:56:41;;;;;;;6.53;5.10;;;18.70;99.90;;;;;;7321721;32;20567;-68
2022/06/04 10:01:04;;;;;;;10.27;5.50;;;18.80;99.90;;;;;;7316358;32;20161;-66
2022/06/04 10:05:07;;;;;;;8.35;6.00;;;18.80;99.90;;;;;;7320098;32;20112;-70
2022/06/04 10:13:42;;;;;;;8.98;5.45;;;19.20;99.90;;;;;;7325624;32;20111;-66
2022/06/04 10:17:44;;;;;;;6.72;5.25;;;19.50;99.90;;;;;;7310364;32;20234;-69
2022/06/04 10:21:48;;;;;;;7.25;5.25;;;19.90;99.90;;;;;;7323334;32;20571;-68
2022/06/04 10:26:21;;;;;;;9.60;5.45;;;20.30;99.90;;;;;;7321362;32;20207;-69
2022/06/04 10:31:04;;;;;;;6.28;5.65;;;20.90;99.90;;;;;;7311922;32;20245;-67
2022/06/04 10:35:16;;;;;;;9.20;4.75;;;20.90;99.90;;;;;;7267023;32;20139;-69
2022/06/04 10:39:41;;;;;;;5.65;5.03;;;21.40;99.90;;;;;;7294545;32;20149;-69
2022/06/04 10:44:07;;;;;;;8.00;6.37;;;21.30;99.90;;;;;;7314361;32;20222;-68
2022/06/04 10:48:36;;;;;;;8.00;5.90;;;21.00;99.90;;;;;;7319468;32;20213;-69
2022/06/04 10:52:42;;;;;;;7.68;6.20;;;21.20;99.90;;;;;;7321308;32;20147;-66
2022/06/04 10:57:23;;;;;;;7.87;6.15;;;21.30;99.90;;;;;;7318593;32;20134;-67
2022/06/04 11:01:48;;;;;;;5.87;5.10;;;21.70;99.90;;;;;;7317958;32;20516;-66
2022/06/04 11:06:24;;;;;;;9.02;6.68;;;21.80;99.90;;;;;;7328953;32;20175;-66
2022/06/04 11:10:38;;;;;;;7.53;5.72;;;21.70;99.90;;;;;;7327959;32;20535;-66
2022/06/04 11:14:48;;;;;;;7.57;6.78;;;22.00;99.90;;;;;;7333203;32;20139;-66
2022/06/04 11:19:03;;;;;;;8.82;6.47;;;22.00;99.90;;;;;;7335162;32;20198;-66
2022/06/04 11:23:26;;;;;;;8.38;5.93;;;21.90;99.90;;;;;;7331762;32;20251;-67
2022/06/04 11:27:39;;;;;;;7.18;6.45;;;22.00;99.90;;;;;;7321863;32;20752;-66
2022/06/04 11:32:04;;;;;;;8.43;6.47;;;22.30;99.90;;;;;;7322444;32;20302;-66
2022/06/04 11:36:12;;;;;;;10.93;5.55;;;22.30;99.90;;;;;;7334812;32;20398;-65
2022/06/04 11:40:48;;;;;;;9.48;6.07;;;22.30;99.90;;;;;;7333757;32;20145;-66
2022/06/04 11:45:16;;;;;;;7.90;6.50;;;22.20;99.90;;;;;;7332675;32;20199;-66
2022/06/04 11:49:35;;;;;;;6.40;5.80;;;22.00;99.90;;;;;;7318991;32;20183;-67
2022/06/04 11:53:52;;;;;;;9.20;6.70;;;21.90;99.90;;;;;;7324956;32;20495;-68
2022/06/04 11:57:56;;;;;;;10.03;5.77;;;21.90;99.90;;;;;;7318899;32;20258;-67
2022/06/04 12:02:24;;;;;;;7.68;6.87;;;22.10;99.90;;;;;;7321775;32;20417;-67
2022/06/04 12:06:41;;;;;;;13.25;5.93;;;22.00;99.90;;;;;;7322806;32;20131;-66
2022/06/04 12:11:12;;;;;;;9.85;6.18;;;22.00;99.90;;;;;;7320473;32;20268;-67
2022/06/04 12:15:42;;;;;;;6.10;5.50;;;21.90;99.90;;;;;;7327611;32;20115;-66
2022/06/04 12:24:38;;;;;;;7.93;5.57;;;22.00;99.90;;;;;;7321916;32;20138;-66
2022/06/04 12:28:42;;;;;;;9.73;4.82;;;22.10;99.90;;;;;;7316113;32;20225;-66
2022/06/04 12:32:53;;;;;;;7.07;4.60;;;22.40;99.90;;;;;;7326868;32;20130;-68
2022/06/04 12:36:56;;;;;;;17.75;12.60;;;23.10;99.90;;;;;;7320861;32;20795;-66
2022/06/04 12:41:12;;;;;;;35.28;28.05;;;23.40;99.90;;;;;;7313617;32;20746;-66
2022/06/04 12:45:38;;;;;;;7.68;4.55;;;23.40;99.90;;;;;;7329059;32;20129;-66
2022/06/04 12:49:54;;;;;;;10.38;5.93;;;23.50;99.90;;;;;;7322907;32;20111;-66
2022/06/04 12:54:03;;;;;;;6.07;4.80;;;23.50;99.90;;;;;;7327755;32;20111;-66
2022/06/04 12:58:34;;;;;;;7.30;4.82;;;23.40;99.90;;;;;;7321642;32;20238;-66
2022/06/04 13:02:42;;;;;;;6.68;4.45;;;23.90;99.90;;;;;;7322827;32;20801;-65
2022/06/04 13:06:55;;;;;;;4.95;4.00;;;24.10;99.90;;;;;;7322295;32;20115;-66
2022/06/04 13:11:03;;;;;;;9.93;8.32;;;24.10;99.90;;;;;;7321193;32;20111;-66
2022/06/04 13:15:17;;;;;;;4.93;3.37;;;24.30;99.90;;;;;;7321649;32;20137;-60
2022/06/04 13:19:31;;;;;;;4.60;3.22;;;24.30;99.90;;;;;;7316880;32;20151;-66
2022/06/04 13:23:44;;;;;;;3.62;3.25;;;24.40;99.90;;;;;;7328685;32;20883;-66
2022/06/04 13:27:54;;;;;;;5.20;3.47;;;24.60;99.90;;;;;;7317587;32;20675;-66
2022/06/04 13:32:20;;;;;;;6.45;2.75;;;24.30;99.90;;;;;;7325928;32;20116;-65
2022/06/04 13:36:30;;;;;;;4.72;2.83;;;24.20;99.90;;;;;;7315548;32;20173;-68
2022/06/04 13:40:32;;;;;;;5.60;4.62;;;24.50;99.90;;;;;;7321073;32;20230;-67
2022/06/04 13:44:37;;;;;;;4.80;2.80;;;24.60;99.90;;;;;;7321381;32;20107;-65
2022/06/04 13:48:53;;;;;;;8.23;3.25;;;24.50;99.90;;;;;;7329731;32;20133;-67
2022/06/04 13:52:59;;;;;;;7.20;3.60;;;24.20;99.90;;;;;;7318318;32;20433;-66
2022/06/04 13:57:15;;;;;;;3.30;3.00;;;24.40;99.90;;;;;;7320550;32;20229;-66
2022/06/04 14:01:21;;;;;;;5.60;2.83;;;24.60;99.90;;;;;;7311959;32;20150;-65
2022/06/04 14:05:47;;;;;;;3.80;3.50;;;24.60;99.90;;;;;;7318452;32;22799;-66
2022/06/04 14:09:54;;;;;;;5.70;2.70;;;24.50;99.90;;;;;;7322893;32;20141;-66
2022/06/04 14:14:17;;;;;;;4.55;2.28;;;24.70;99.90;;;;;;7314243;32;20146;-64
2022/06/04 14:18:47;;;;;;;4.20;3.30;;;25.00;99.90;;;;;;7313446;32;20129;-66
2022/06/04 14:23:11;;;;;;;3.22;2.75;;;25.20;99.90;;;;;;7318395;32;20141;-67
2022/06/04 14:27:32;;;;;;;5.35;2.67;;;24.60;99.90;;;;;;7323353;32;20539;-61
2022/06/04 14:31:43;;;;;;;6.18;2.47;;;24.60;99.90;;;;;;7321083;32;20103;-69
2022/06/04 14:36:00;;;;;;;4.35;2.72;;;24.60;99.90;;;;;;7323105;32;20250;-68
2022/06/04 14:40:03;;;;;;;4.62;2.33;;;24.70;99.90;;;;;;7316571;32;20124;-65
2022/06/04 14:44:34;;;;;;;3.80;2.37;;;24.80;99.90;;;;;;7315187;32;20112;-65
2022/06/04 14:49:08;;;;;;;4.93;2.50;;;24.80;99.90;;;;;;7319518;32;20609;-65
2022/06/04 14:53:13;;;;;;;4.25;2.85;;;24.70;99.90;;;;;;7338140;32;20134;-69
2022/06/04 14:57:41;;;;;;;4.75;2.17;;;24.40;99.90;;;;;;7322150;32;20138;-69
2022/06/04 15:02:01;;;;;;;3.85;2.53;;;24.50;99.90;;;;;;7327689;32;20114;-70
2022/06/04 15:06:04;;;;;;;4.37;2.22;;;24.60;99.90;;;;;;7319523;32;20115;-68
2022/06/04 15:10:25;;;;;;;4.57;2.30;;;24.50;99.90;;;;;;7319395;32;20123;-67
2022/06/04 15:15:00;;;;;;;6.10;2.25;;;24.50;99.90;;;;;;7321989;32;20107;-65
2022/06/04 15:19:28;;;;;;;2.60;2.03;;;24.80;99.90;;;;;;7322589;32;20191;-69
2022/06/04 15:23:48;;;;;;;6.70;2.80;;;24.40;99.90;;;;;;7314324;32;20716;-68
2022/06/04 15:28:11;;;;;;;4.18;2.58;;;24.40;99.90;;;;;;7337363;32;20695;-66
2022/06/04 15:37:11;;;;;;;5.97;2.22;;;24.40;99.90;;;;;;7323175;32;20261;-69
2022/06/04 15:41:27;;;;;;;4.40;2.13;;;24.50;99.80;;;;;;7318874;32;20130;-69
2022/06/04 15:45:57;;;;;;;3.50;2.20;;;24.40;99.90;;;;;;7325936;32;20194;-69
2022/06/04 15:58:52;;;;;;;4.35;2.17;;;24.20;99.90;;;;;;7323074;32;20115;-69
2022/06/04 16:02:56;;;;;;;2.95;2.08;;;24.10;99.60;;;;;;7329558;32;20582;-69
2022/06/04 16:06:58;;;;;;;4.32;2.00;;;24.20;99.80;;;;;;7329997;32;20139;-69
2022/06/04 16:11:10;;;;;;;5.25;2.10;;;24.10;99.90;;;;;;7312594;32;20190;-69
2022/06/04 16:15:34;;;;;;;5.95;2.15;;;24.00;99.90;;;;;;7316572;32;20531;-68
2022/06/04 16:19:56;;;;;;;4.05;2.00;;;24.10;99.90;;;;;;7322595;32;20806;-70
2022/06/04 16:24:06;;;;;;;3.87;1.90;;;24.10;99.70;;;;;;7325178;32;20107;-68
2022/06/04 16:28:22;;;;;;;4.82;2.20;;;24.00;99.90;;;;;;7326360;32;20163;-67
2022/06/04 16:32:23;;;;;;;5.15;1.85;;;24.00;99.90;;;;;;7318374;32;20313;-68
2022/06/04 16:36:45;;;;;;;6.50;2.12;;;24.00;99.80;;;;;;7322192;32;20102;-70
2022/06/04 16:45:22;;;;;;;3.83;1.80;;;23.80;98.90;;;;;;7329195;32;20187;-69
2022/06/04 16:49:49;;;;;;;3.62;1.92;;;23.80;99.20;;;;;;7323169;32;20119;-70
2022/06/04 16:53:51;;;;;;;6.43;2.35;;;23.70;99.30;;;;;;7324547;32;20202;-69
2022/06/04 16:57:55;;;;;;;7.03;2.40;;;23.80;98.60;;;;;;7321901;32;20115;-69
2022/06/04 17:02:09;;;;;;;3.55;2.40;;;23.60;99.20;;;;;;7322450;32;20246;-67
2022/06/04 17:06:18;;;;;;;4.95;2.10;;;23.60;99.90;;;;;;7331498;32;20326;-68
2022/06/04 17:10:32;;;;;;;2.30;2.03;;;23.60;99.10;;;;;;7313849;32;20119;-67
2022/06/04 17:14:55;;;;;;;3.17;1.90;;;23.50;99.60;;;;;;7320403;32;20146;-66
2022/06/04 17:19:22;;;;;;;2.62;1.95;;;23.40;99.50;;;;;;7319622;32;20108;-65
2022/06/04 17:23:36;;;;;;;5.15;2.30;;;23.50;99.90;;;;;;7317772;32;20603;-65
2022/06/04 17:28:05;;;;;;;3.55;1.95;;;23.40;99.70;;;;;;7321544;32;20902;-65
2022/06/04 17:32:20;;;;;;;2.47;1.95;;;23.20;99.80;;;;;;7319356;32;20722;-66
2022/06/04 17:36:31;;;;;;;4.18;2.00;;;23.10;99.90;;;;;;7320631;32;20845;-70
2022/06/04 17:40:42;;;;;;;2.35;1.90;;;23.10;99.90;;;;;;7320501;32;20206;-70
2022/06/04 17:44:44;;;;;;;2.30;2.10;;;23.10;99.90;;;;;;7322494;32;20127;-71
2022/06/04 17:48:46;;;;;;;3.40;2.20;;;23.10;99.90;;;;;;7324788;32;20112;-71
2022/06/04 17:52:48;;;;;;;6.12;2.62;;;23.10;99.90;;;;;;7324595;32;20142;-71
2022/06/04 17:56:50;;;;;;;10.68;9.68;;;23.10;99.90;;;;;;7319914;32;20110;-67
2022/06/04 18:00:52;;;;;;;31.08;23.23;;;22.90;99.90;;;;;;7320978;32;20123;-67
2022/06/04 18:04:54;;;;;;;5.50;3.00;;;23.00;99.90;;;;;;7327112;32;20115;-67
2022/06/04 18:08:55;;;;;;;7.00;3.58;;;22.90;99.90;;;;;;7324610;32;20116;-67
2022/06/04 18:12:59;;;;;;;2.42;2.03;;;22.80;99.90;;;;;;7321434;32;20788;-67
2022/06/04 18:17:01;;;;;;;4.53;2.78;;;22.70;99.90;;;;;;7315533;32;20229;-67
2022/06/04 18:21:11;;;;;;;6.43;2.22;;;22.60;99.90;;;;;;7318594;32;20111;-59
2022/06/04 18:25:13;;;;;;;3.00;2.12;;;22.40;99.90;;;;;;7317263;32;20340;-67
2022/06/04 18:29:15;;;;;;;4.93;2.08;;;22.40;99.90;;;;;;7315657;32;20235;-67
2022/06/04 18:33:17;;;;;;;2.35;2.05;;;22.30;99.90;;;;;;7316193;32;20229;-67
2022/06/04 18:37:19;;;;;;;4.50;2.15;;;22.20;99.90;;;;;;7320899;32;20111;-67
2022/06/04 18:41:21;;;;;;;2.70;2.00;;;22.20;99.90;;;;;;7325624;32;20165;-66
2022/06/04 18:58:28;;;;;;;3.90;2.72;;;21.80;99.90;;;;;;7325190;32;20115;-67
2022/06/04 19:02:29;;;;;;;3.83;2.20;;;21.60;99.90;;;;;;7324278;32;20116;-65
2022/06/04 19:06:32;;;;;;;3.92;2.12;;;21.60;99.90;;;;;;7330782;32;20209;-67
2022/06/04 19:14:54;;;;;;;2.97;2.37;;;21.40;99.90;;;;;;7324546;32;20129;-69
2022/06/04 19:19:08;;;;;;;2.45;2.25;;;21.30;99.90;;;;;;7324332;32;20208;-68
2022/06/04 19:27:31;;;;;;;5.35;2.00;;;21.00;99.90;;;;;;7324215;32;20147;-67
2022/06/04 19:31:33;;;;;;;2.85;2.12;;;20.90;99.90;;;;;;7320512;32;20629;-69
2022/06/04 19:35:34;;;;;;;6.37;2.10;;;20.90;99.90;;;;;;7326594;32;20103;-69
2022/06/04 19:39:36;;;;;;;4.68;2.22;;;20.80;99.90;;;;;;7323647;32;20134;-68
2022/06/04 19:43:38;;;;;;;6.62;2.10;;;20.70;99.90;;;;;;7329740;32;20138;-69
2022/06/04 19:47:40;;;;;;;2.97;2.08;;;20.70;99.90;;;;;;7323811;32;20131;-69
2022/06/04 19:51:42;;;;;;;8.93;7.45;;;20.50;99.90;;;;;;7322995;32;20219;-69
2022/06/04 19:55:43;;;;;;;3.58;2.25;;;20.40;99.90;;;;;;7327833;32;20550;-68
2022/06/04 19:59:46;;;;;;;2.80;2.03;;;20.40;99.90;;;;;;7324213;32;20507;-67
2022/06/04 20:03:49;;;;;;;2.22;2.00;;;20.20;99.90;;;;;;7326390;32;20111;-68
2022/06/04 20:07:51;;;;;;;3.17;1.95;;;20.20;99.90;;;;;;7332900;32;20180;-68
2022/06/04 20:11:52;;;;;;;4.93;2.40;;;20.00;99.90;;;;;;7329854;32;20112;-66
2022/06/04 20:15:54;;;;;;;6.47;2.53;;;20.00;99.90;;;;;;7325137;32;20116;-66
2022/06/04 20:19:56;;;;;;;3.80;2.40;;;20.00;99.90;;;;;;7325565;32;20190;-66
2022/06/04 20:23:58;;;;;;;5.20;2.55;;;19.90;99.90;;;;;;7325027;32;20137;-68
2022/06/04 20:28:01;;;;;;;3.90;2.10;;;19.90;99.90;;;;;;7324467;32;20150;-67
2022/06/04 20:32:03;;;;;;;3.05;2.25;;;19.70;99.90;;;;;;7323954;32;20129;-67
2022/06/04 20:36:08;;;;;;;3.37;2.30;;;19.80;99.90;;;;;;7319349;32;20788;-67
2022/06/04 20:40:10;;;;;;;4.12;2.50;;;19.80;99.90;;;;;;7316009;32;20143;-66
2022/06/04 20:44:12;;;;;;;3.03;2.58;;;19.80;99.90;;;;;;7320291;32;20238;-67
2022/06/04 20:48:14;;;;;;;6.37;2.80;;;19.70;99.90;;;;;;7325900;32;20138;-66
2022/06/04 20:52:16;;;;;;;4.03;2.50;;;19.70;99.90;;;;;;7324320;32;20248;-67
2022/06/04 20:56:26;;;;;;;4.07;2.30;;;19.70;99.90;;;;;;7324410;32;20270;-67
2022/06/04 21:00:28;;;;;;;2.65;2.40;;;19.70;99.90;;;;;;7326388;32;20135;-67
2022/06/04 21:04:30;;;;;;;5.62;2.78;;;19.60;99.90;;;;;;7323965;32;20180;-67
2022/06/04 21:08:34;;;;;;;3.97;2.62;;;19.60;99.90;;;;;;7328960;32;20257;-66
2022/06/04 21:12:37;;;;;;;3.85;2.42;;;19.60;99.90;;;;;;7324601;32;20131;-67
2022/06/04 21:16:39;;;;;;;2.72;2.30;;;19.60;99.90;;;;;;7322928;32;20218;-69
2022/06/04 21:20:41;;;;;;;3.95;2.60;;;19.60;99.90;;;;;;7322323;32;20187;-67
2022/06/04 21:24:43;;;;;;;3.58;2.42;;;19.60;99.90;;;;;;7321566;32;20115;-67
2022/06/04 21:28:49;;;;;;;2.97;2.65;;;19.50;99.90;;;;;;7317594;32;20120;-63
2022/06/04 21:32:51;;;;;;;4.18;2.50;;;19.50;99.90;;;;;;7318213;32;20111;-65
2022/06/04 21:41:13;;;;;;;4.05;2.60;;;19.30;99.90;;;;;;7321677;32;20141;-63
2022/06/04 21:45:23;;;;;;;3.30;2.55;;;19.20;99.90;;;;;;7317194;32;20221;-64
2022/06/04 21:49:25;;;;;;;6.90;2.90;;;19.20;99.90;;;;;;7317910;32;20133;-63
2022/06/04 21:53:26;;;;;;;3.62;2.70;;;19.20;99.90;;;;;;7320149;32;20642;-63
2022/06/04 21:57:28;;;;;;;5.70;2.40;;;19.10;99.90;;;;;;7317317;32;20186;-63
2022/06/04 22:01:30;;;;;;;4.72;2.85;;;19.00;99.90;;;;;;7319399;32;20134;-63
2022/06/04 22:05:32;;;;;;;3.75;2.62;;;18.90;99.90;;;;;;7321923;32;20949;-63
2022/06/04 22:09:34;;;;;;;4.35;2.83;;;18.90;99.90;;;;;;7319470;32;20680;-63
2022/06/04 22:13:37;;;;;;;3.50;3.20;;;18.80;99.90;;;;;;7323367;32;20107;-62
2022/06/04 22:17:40;;;;;;;6.97;3.65;;;18.80;99.90;;;;;;7316307;32;20127;-64
2022/06/04 22:21:42;;;;;;;6.25;4.10;;;18.70;99.90;;;;;;7317035;32;20404;-64
2022/06/04 22:25:45;;;;;;;5.28;4.12;;;18.60;99.90;;;;;;7322013;32;20697;-63
2022/06/04 22:29:47;;;;;;;5.87;3.67;;;18.60;99.90;;;;;;7320256;32;20103;-64
2022/06/04 22:33:48;;;;;;;3.87;3.53;;;18.60;99.90;;;;;;7320327;32;20111;-62